Time;durP1;ratioP1;P1;durP2;ratioP2;P2;SDS_P1;SDS_P2;PMS_P1;PMS_P2;Temp;Humidity;BMP_temperature;BMP_pressure;BME280_temperature;BME280_humidity;BME280_pressure;Samples;Min_cycle;Max_cycle;Signal;HPM_P1;HPM_P2
2023/09/27 04:22:32;;;;;;;7.25;5.65;;;;;;;9.94;100.00;100735.03;5130150;27;20402;-69
2023/09/27 04:24:57;;;;;;;9.48;5.70;;;;;;;9.95;100.00;100742.03;5130233;27;20491;-69
2023/09/27 04:27:23;;;;;;;7.43;5.30;;;;;;;9.95;100.00;100746.50;5130273;27;20472;-69
2023/09/27 04:29:50;;;;;;;6.97;6.10;;;;;;;9.95;100.00;100754.50;5130259;28;20031;-69
2023/09/27 04:32:16;;;;;;;7.78;5.45;;;;;;;9.91;100.00;100751.34;5129843;28;20032;-69
2023/09/27 04:34:41;;;;;;;7.57;5.50;;;;;;;9.92;100.00;100747.66;5129965;28;20539;-67
2023/09/27 04:37:08;;;;;;;6.60;5.35;;;;;;;9.91;100.00;100743.34;5130102;28;20067;-70
2023/09/27 04:39:34;;;;;;;6.78;5.30;;;;;;;9.87;100.00;100741.16;5130100;27;20606;-67
2023/09/27 04:41:59;;;;;;;8.23;5.43;;;;;;;9.86;100.00;100742.97;5129905;28;20038;-66
2023/09/27 04:44:25;;;;;;;5.95;5.20;;;;;;;9.90;100.00;100738.16;5129740;27;20032;-68
2023/09/27 04:46:50;;;;;;;6.55;5.57;;;;;;;9.89;100.00;100740.00;5129849;28;20049;-67
2023/09/27 04:49:15;;;;;;;6.35;4.82;;;;;;;9.90;100.00;100739.00;5129852;28;20417;-69
2023/09/27 04:51:41;;;;;;;5.55;4.95;;;;;;;9.85;100.00;100740.47;5129795;27;20043;-69
2023/09/27 04:54:07;;;;;;;7.25;5.65;;;;;;;9.83;100.00;100735.28;5129354;27;20043;-68
2023/09/27 04:56:32;;;;;;;7.50;5.80;;;;;;;9.85;100.00;100735.16;5129631;28;20482;-68
2023/09/27 04:59:01;;;;;;;7.07;5.60;;;;;;;9.77;100.00;100725.28;5129611;28;20036;-70
2023/09/27 05:01:26;;;;;;;5.88;5.28;;;;;;;9.78;100.00;100724.31;5146625;27;20070;-69
2023/09/27 05:03:52;;;;;;;7.93;5.40;;;;;;;9.76;100.00;100721.78;5150022;27;20066;-68
2023/09/27 05:06:17;;;;;;;8.15;5.38;;;;;;;9.76;100.00;100720.94;5150060;27;20164;-68
2023/09/27 05:08:42;;;;;;;7.38;5.63;;;;;;;9.74;100.00;100721.09;5150217;27;20045;-68
2023/09/27 05:11:08;;;;;;;5.68;5.07;;;;;;;9.72;100.00;100720.44;5150148;27;20027;-68
2023/09/27 05:13:33;;;;;;;11.35;6.70;;;;;;;9.76;100.00;100726.25;5148581;27;20058;-68
2023/09/27 05:15:59;;;;;;;6.55;4.60;;;;;;;9.76;100.00;100739.56;5150067;27;20035;-68
2023/09/27 05:18:25;;;;;;;5.78;4.93;;;;;;;9.80;100.00;100732.97;5150017;27;20083;-69
2023/09/27 05:20:50;;;;;;;6.45;5.15;;;;;;;9.82;100.00;100738.13;5149737;27;20371;-68
2023/09/27 05:23:16;;;;;;;6.68;5.00;;;;;;;9.79;100.00;100745.44;5149629;27;20049;-68
2023/09/27 05:25:41;;;;;;;5.47;4.90;;;;;;;9.76;100.00;100744.88;5149717;27;20113;-68
2023/09/27 05:28:07;;;;;;;6.68;5.07;;;;;;;9.78;100.00;100742.94;5149787;27;20039;-69
2023/09/27 05:30:32;;;;;;;6.93;4.47;;;;;;;9.73;100.00;100743.38;5149620;27;20062;-68
2023/09/27 05:32:57;;;;;;;5.82;4.63;;;;;;;9.78;100.00;100746.41;5140904;27;20046;-69
2023/09/27 05:35:23;;;;;;;6.50;5.63;;;;;;;9.74;100.00;100749.53;5135852;27;20473;-69
2023/09/27 05:37:49;;;;;;;6.75;4.78;;;;;;;9.75;100.00;100751.22;5135780;27;20498;-69
2023/09/27 05:40:16;;;;;;;4.63;4.13;;;;;;;9.71;100.00;100750.66;5135778;27;20062;-69
2023/09/27 05:42:42;;;;;;;7.25;4.47;;;;;;;9.73;100.00;100754.03;5135322;27;20035;-68
2023/09/27 05:45:11;;;;;;;5.20;4.70;;;;;;;9.75;100.00;100762.69;5135484;27;20038;-68
2023/09/27 05:47:37;;;;;;;6.63;4.55;;;;;;;9.74;100.00;100754.84;5135645;27;20172;-69
2023/09/27 05:50:04;;;;;;;7.47;4.72;;;;;;;9.75;100.00;100762.69;5123468;27;20525;-70
2023/09/27 05:52:30;;;;;;;5.47;4.57;;;;;;;9.71;100.00;100763.13;5114823;28;20036;-69
2023/09/27 05:54:56;;;;;;;5.63;4.40;;;;;;;9.76;100.00;100761.69;5114740;28;20042;-68
2023/09/27 05:57:22;;;;;;;6.28;4.88;;;;;;;9.74;100.00;100766.34;5114640;28;20040;-69
2023/09/27 05:59:48;;;;;;;6.45;4.60;;;;;;;9.75;100.00;100764.50;5114796;28;20075;-57
2023/09/27 06:02:17;;;;;;;5.32;4.68;;;;;;;9.83;100.00;100769.88;5114729;28;20042;-64
2023/09/27 06:04:46;;;;;;;5.03;4.35;;;;;;;9.88;100.00;100764.94;5114608;28;20119;-64
2023/09/27 06:07:17;;;;;;;6.03;4.65;;;;;;;9.98;100.00;100759.53;5114578;28;20532;-64
2023/09/27 06:09:43;;;;;;;6.60;4.78;;;;;;;10.02;100.00;100763.53;5114717;28;20032;-64
2023/09/27 06:12:10;;;;;;;6.50;4.57;;;;;;;10.02;100.00;100763.53;5114396;27;20413;-64
2023/09/27 06:14:36;;;;;;;5.10;4.60;;;;;;;9.95;100.00;100763.31;5114373;28;20036;-64
2023/09/27 06:17:02;;;;;;;5.07;4.57;;;;;;;10.07;100.00;100771.88;5113159;28;20126;-64
2023/09/27 06:19:28;;;;;;;6.70;4.60;;;;;;;10.12;100.00;100764.25;5114542;28;20122;-64
2023/09/27 06:21:53;;;;;;;6.15;4.75;;;;;;;10.15;100.00;100755.09;5114294;28;20118;-64
2023/09/27 06:24:19;;;;;;;5.22;4.57;;;;;;;10.21;100.00;100767.78;5114239;28;20515;-64
2023/09/27 06:26:44;;;;;;;6.07;4.82;;;;;;;10.26;100.00;100765.53;5114119;28;20038;-64
2023/09/27 06:29:09;;;;;;;8.93;4.50;;;;;;;10.32;100.00;100764.91;5114156;28;20436;-64
2023/09/27 06:31:35;;;;;;;5.65;4.50;;;;;;;10.33;100.00;100764.72;5114124;28;20050;-64
2023/09/27 06:34:01;;;;;;;5.90;5.00;;;;;;;10.42;100.00;100767.41;5113906;28;20035;-64
2023/09/27 06:36:29;;;;;;;6.40;4.63;;;;;;;10.48;100.00;100758.78;5114071;28;20032;-64
2023/09/27 06:38:58;;;;;;;6.55;4.63;;;;;;;10.55;100.00;100757.16;5113925;28;20110;-65
2023/09/27 06:41:23;;;;;;;6.82;5.38;;;;;;;10.67;100.00;100752.38;5113953;28;20043;-64
2023/09/27 06:43:49;;;;;;;7.20;5.18;;;;;;;10.74;100.00;100753.41;5112922;28;20444;-65
2023/09/27 06:46:17;;;;;;;6.68;5.50;;;;;;;10.87;100.00;100756.44;5113668;28;20043;-64
2023/09/27 06:48:43;;;;;;;8.45;5.22;;;;;;;11.00;100.00;100756.78;5113949;28;20123;-64
2023/09/27 06:51:11;;;;;;;7.78;5.55;;;;;;;11.17;100.00;100752.34;5113783;28;20444;-64
2023/09/27 06:53:38;;;;;;;7.35;5.60;;;;;;;11.31;100.00;100749.00;5113554;27;20528;-64
2023/09/27 06:56:05;;;;;;;6.80;5.80;;;;;;;11.40;100.00;100748.00;5113703;28;20043;-65
2023/09/27 06:58:31;;;;;;;7.95;5.82;;;;;;;11.50;100.00;100755.84;5113650;28;20038;-65
2023/09/27 07:00:56;;;;;;;7.53;5.68;;;;;;;11.59;100.00;100760.19;5113639;28;20027;-65
2023/09/27 07:03:24;;;;;;;6.97;5.85;;;;;;;11.69;100.00;100760.03;5113425;28;20036;-64
2023/09/27 07:05:51;;;;;;;10.13;5.80;;;;;;;11.81;100.00;100763.22;5113371;28;20529;-64
2023/09/27 07:08:17;;;;;;;10.60;7.00;;;;;;;11.94;100.00;100763.53;5113471;28;20468;-64
2023/09/27 07:10:42;;;;;;;8.93;6.75;;;;;;;12.05;100.00;100763.16;5113370;28;20135;-64
2023/09/27 07:13:08;;;;;;;9.77;6.68;;;;;;;12.11;100.00;100757.13;5113107;28;20091;-65
2023/09/27 07:15:33;;;;;;;8.45;6.80;;;;;;;12.21;100.00;100757.78;5113572;28;20031;-64
2023/09/27 07:17:59;;;;;;;8.55;7.32;;;;;;;12.33;100.00;100750.25;5113350;28;20040;-65
2023/09/27 07:20:27;;;;;;;13.23;7.75;;;;;;;12.43;100.00;100756.19;5113101;28;20042;-64
2023/09/27 07:22:54;;;;;;;7.50;6.57;;;;;;;12.59;100.00;100760.66;5113023;28;20039;-64
2023/09/27 07:25:21;;;;;;;9.95;6.82;;;;;;;12.69;100.00;100755.94;5113371;28;20406;-64
2023/09/27 07:27:51;;;;;;;11.18;6.90;;;;;;;12.76;100.00;100756.88;5113114;28;20027;-64
2023/09/27 07:30:26;;;;;;;9.60;7.15;;;;;;;12.85;100.00;100756.88;5112984;28;20076;-64
2023/09/27 07:32:52;;;;;;;9.25;7.05;;;;;;;12.95;100.00;100762.81;5112610;28;20027;-64
2023/09/27 07:35:18;;;;;;;10.45;6.38;;;;;;;13.08;100.00;100756.88;5112517;28;20386;-64
2023/09/27 07:37:44;;;;;;;8.23;6.60;;;;;;;13.19;100.00;100749.28;5112545;28;20067;-64
2023/09/27 07:40:11;;;;;;;9.63;5.88;;;;;;;13.29;100.00;100757.09;5112479;28;20563;-64
2023/09/27 07:42:38;;;;;;;11.02;6.25;;;;;;;13.44;100.00;100759.84;5112215;28;20042;-64
2023/09/27 07:45:05;;;;;;;8.70;5.93;;;;;;;13.52;100.00;100757.09;5112575;28;20043;-64
2023/09/27 07:47:31;;;;;;;8.38;5.82;;;;;;;13.60;100.00;100751.66;5110066;28;20383;-64
2023/09/27 07:49:56;;;;;;;8.57;6.00;;;;;;;13.68;100.00;100754.25;5112459;28;20042;-65
2023/09/27 07:52:21;;;;;;;7.95;6.25;;;;;;;13.84;100.00;100751.44;5111040;28;20097;-65
2023/09/27 07:54:47;;;;;;;8.27;5.70;;;;;;;13.94;100.00;100747.66;5111984;28;20031;-64
2023/09/27 07:57:14;;;;;;;8.30;6.18;;;;;;;14.04;100.00;100754.44;5091721;28;20028;-64
2023/09/27 07:59:39;;;;;;;8.43;6.10;;;;;;;14.18;100.00;100757.31;5112286;28;20481;-64
2023/09/27 08:02:05;;;;;;;6.80;5.40;;;;;;;14.26;100.00;100750.00;5111866;28;20027;-64
2023/09/27 08:04:30;;;;;;;6.32;5.40;;;;;;;14.40;100.00;100759.03;5112075;28;20040;-64
2023/09/27 08:06:55;;;;;;;7.90;5.18;;;;;;;14.57;100.00;100749.81;5112096;28;20035;-64
2023/09/27 08:09:22;;;;;;;5.60;4.50;;;;;;;14.71;100.00;100753.50;5112088;28;20463;-65
2023/09/27 08:11:48;;;;;;;5.18;4.22;;;;;;;14.81;100.00;100750.53;5109225;28;20035;-65
2023/09/27 08:14:16;;;;;;;6.88;4.47;;;;;;;14.99;100.00;100750.09;5111679;28;20035;-65
2023/09/27 08:16:41;;;;;;;;;;;;;;;15.08;100.00;100752.47;5112352;28;20092;-65
2023/09/27 08:19:07;;;;;;;5.28;3.88;;;;;;;15.17;100.00;100745.97;5111988;28;20368;-65
2023/09/27 08:21:32;;;;;;;5.18;3.92;;;;;;;15.32;100.00;100740.56;5111718;28;20042;-65
2023/09/27 08:23:58;;;;;;;4.15;3.70;;;;;;;15.41;100.00;100731.34;5111885;28;20081;-65
2023/09/27 08:26:27;;;;;;;5.18;3.72;;;;;;;15.54;100.00;100736.00;5111902;28;20091;-64
2023/09/27 08:28:52;;;;;;;6.45;4.10;;;;;;;15.67;100.00;100733.44;5112204;28;20062;-65
2023/09/27 08:31:18;;;;;;;4.95;3.40;;;;;;;15.77;100.00;100725.03;5112202;28;20020;-64
2023/09/27 08:33:43;;;;;;;4.40;3.30;;;;;;;15.83;100.00;100718.88;5111967;28;20125;-65
2023/09/27 08:36:09;;;;;;;3.85;3.10;;;;;;;16.00;100.00;100725.63;5112230;28;20027;-65
2023/09/27 08:38:35;;;;;;;4.35;3.20;;;;;;;16.08;100.00;100727.31;5112169;28;20502;-65
2023/09/27 08:41:00;;;;;;;3.20;2.90;;;;;;;16.21;100.00;100727.38;5112092;28;20474;-64
2023/09/27 08:43:28;;;;;;;3.03;2.72;;;;;;;16.27;100.00;100720.38;5111949;28;20092;-64
2023/09/27 08:45:54;;;;;;;4.28;2.97;;;;;;;16.40;100.00;100717.75;5112122;28;20038;-65
2023/09/27 08:48:22;;;;;;;6.22;2.80;;;;;;;16.48;100.00;100716.75;5112069;28;20043;-64
2023/09/27 08:50:49;;;;;;;3.15;2.33;;;;;;;16.58;100.00;100716.41;5111899;28;20035;-65
2023/09/27 08:53:15;;;;;;;;;;;;;;;16.69;100.00;100707.72;5112127;28;20390;-65
2023/09/27 08:55:49;;;;;;;5.47;3.10;;;;;;;16.85;100.00;100717.34;5111685;28;19912;-65
2023/09/27 08:58:15;;;;;;;3.00;2.55;;;;;;;16.92;100.00;100712.81;5111853;28;20040;-64
2023/09/27 09:00:42;;;;;;;3.20;2.83;;;;;;;16.97;100.00;100700.41;5111926;28;20553;-64
2023/09/27 09:03:08;;;;;;;3.13;2.40;;;;;;;17.16;100.00;100703.34;5111781;28;20041;-64
2023/09/27 09:05:36;;;;;;;3.53;2.50;;;;;;;17.22;100.00;100708.72;5112001;28;20036;-64
2023/09/27 09:08:05;;;;;;;4.05;3.03;;;;;;;17.34;99.92;100701.72;5113625;28;20168;-64
2023/09/27 09:10:30;;;;;;;5.93;2.80;;;;;;;17.59;95.14;100709.97;5115758;28;20059;-65
2023/09/27 09:12:59;;;;;;;4.05;2.58;;;;;;;17.62;96.46;100706.88;5115614;28;20124;-64
2023/09/27 09:15:40;;;;;;;3.20;2.13;;;;;;;17.78;97.85;100704.81;5115562;28;20058;-65
2023/09/27 09:18:29;;;;;;;3.03;2.67;;;;;;;17.90;94.55;100700.44;5115762;28;20043;-65
2023/09/27 09:20:59;;;;;;;3.92;2.88;;;;;;;17.99;94.74;100701.03;5115609;28;20119;-64
2023/09/27 09:23:33;;;;;;;3.75;2.42;;;;;;;18.18;93.45;100695.59;5115245;28;20528;-64
2023/09/27 09:26:00;;;;;;;5.35;2.40;;;;;;;18.66;97.97;100689.84;5115456;28;20482;-64
2023/09/27 09:28:25;;;;;;;4.13;2.67;;;;;;;18.67;89.44;100680.69;5115459;28;20501;-64
2023/09/27 09:30:51;;;;;;;3.42;2.38;;;;;;;18.76;87.50;100680.44;5115393;28;20297;-64
2023/09/27 09:33:20;;;;;;;4.25;2.80;;;;;;;18.83;86.57;100687.44;5115306;28;20035;-64
2023/09/27 09:35:46;;;;;;;3.40;2.65;;;;;;;18.95;86.81;100683.03;5115233;28;20042;-64
2023/09/27 09:38:22;;;;;;;4.28;2.47;;;;;;;19.19;83.38;100673.31;5115287;28;20033;-64
2023/09/27 09:41:01;;;;;;;3.97;2.42;;;;;;;19.47;81.35;100672.84;5115286;28;20035;-64
2023/09/27 09:43:36;;;;;;;4.18;2.33;;;;;;;19.72;81.40;100661.25;5115094;28;20108;-64
2023/09/27 09:46:06;;;;;;;2.72;2.38;;;;;;;19.94;78.76;100659.75;5115064;28;20039;-64
2023/09/27 09:48:34;;;;;;;2.85;2.30;;;;;;;20.21;77.24;100660.28;5115051;28;20035;-64
2023/09/27 09:51:06;;;;;;;3.72;2.20;;;;;;;20.65;74.79;100654.75;5115012;28;20040;-63
2023/09/27 09:53:36;;;;;;;3.63;2.30;;;;;;;20.91;73.43;100656.25;5114990;28;20405;-64
2023/09/27 09:56:03;;;;;;;3.70;2.30;;;;;;;21.41;70.26;100651.31;5115031;28;20050;-64
2023/09/27 09:58:37;;;;;;;4.15;2.47;;;;;;;21.98;65.45;100637.13;5114993;28;20097;-65
2023/09/27 10:01:04;;;;;;;3.30;1.92;;;;;;;22.40;62.76;100645.88;5114957;28;20042;-65
2023/09/27 10:03:32;;;;;;;2.65;2.25;;;;;;;22.88;60.78;100640.00;5114575;28;20043;-64
2023/09/27 10:06:04;;;;;;;2.78;2.30;;;;;;;23.47;57.71;100642.34;5114700;28;20500;-64
2023/09/27 10:08:38;;;;;;;3.10;2.05;;;;;;;24.01;56.18;100634.44;5114842;28;20047;-65
2023/09/27 10:11:04;;;;;;;2.88;2.08;;;;;;;24.52;53.85;100637.78;5114634;28;20040;-68
2023/09/27 10:13:36;;;;;;;2.85;2.53;;;;;;;24.72;52.50;100629.00;5114313;28;20107;-65
2023/09/27 10:16:04;;;;;;;2.55;2.20;;;;;;;25.18;51.52;100622.09;5114518;28;20036;-63
2023/09/27 10:18:34;;;;;;;3.42;2.05;;;;;;;25.51;50.66;100634.59;5114495;28;20032;-65
2023/09/27 10:21:05;;;;;;;3.58;1.92;;;;;;;26.00;48.43;100628.88;5114455;28;20042;-62
2023/09/27 10:23:45;;;;;;;2.85;2.05;;;;;;;26.07;48.68;100629.44;5114197;28;20051;-65
2023/09/27 10:26:26;;;;;;;3.00;2.10;;;;;;;26.96;47.20;100624.78;5114464;28;20418;-63
2023/09/27 10:29:01;;;;;;;3.08;2.03;;;;;;;27.35;45.63;100625.06;5114403;28;20027;-64
2023/09/27 10:31:30;;;;;;;3.28;1.90;;;;;;;27.67;45.34;100618.44;5114156;28;20070;-63
2023/09/27 10:33:56;;;;;;;2.55;1.80;;;;;;;27.98;44.56;100616.47;5114163;28;20027;-64
2023/09/27 10:36:21;;;;;;;3.00;1.85;;;;;;;28.17;44.43;100620.22;5114017;28;20038;-64
2023/09/27 10:38:49;;;;;;;2.70;1.92;;;;;;;28.81;43.35;100612.97;5114084;28;20039;-65
2023/09/27 10:41:38;;;;;;;2.97;1.85;;;;;;;28.86;42.89;100611.00;5114142;28;20030;-64
2023/09/27 10:44:04;;;;;;;3.40;2.00;;;;;;;28.71;43.66;100610.31;5113835;28;20040;-65
2023/09/27 10:46:51;;;;;;;3.88;1.92;;;;;;;28.94;42.93;100612.34;5113981;28;20050;-64
2023/09/27 10:49:24;;;;;;;3.08;1.85;;;;;;;29.60;41.57;100605.44;5114034;28;20035;-64
2023/09/27 10:51:51;;;;;;;2.55;1.80;;;;;;;29.85;40.68;100605.16;5113820;28;20039;-64
2023/09/27 10:54:22;;;;;;;2.47;1.83;;;;;;;29.75;40.16;100604.47;5113731;28;20023;-64
2023/09/27 10:56:52;;;;;;;3.08;1.98;;;;;;;30.06;40.87;100600.25;5113834;28;20027;-64
2023/09/27 10:59:27;;;;;;;3.63;1.92;;;;;;;30.41;39.28;100592.66;5113842;28;20081;-64
2023/09/27 11:01:54;;;;;;;4.13;2.03;;;;;;;30.95;38.73;100588.53;5113846;28;20031;-64
2023/09/27 11:04:21;;;;;;;3.25;1.73;;;;;;;30.58;38.93;100586.59;5113772;28;20134;-64
2023/09/27 11:06:46;;;;;;;3.38;1.75;;;;;;;30.88;38.55;100580.66;5113535;28;20039;-64
2023/09/27 11:09:12;;;;;;;4.60;2.10;;;;;;;30.80;37.48;100570.34;5113423;28;20044;-64
2023/09/27 11:11:42;;;;;;;2.50;1.67;;;;;;;31.16;37.23;100575.22;5113466;28;20076;-64
2023/09/27 11:14:08;;;;;;;2.20;1.73;;;;;;;31.52;36.89;100570.72;5113268;28;20035;-64
2023/09/27 11:16:33;;;;;;;3.30;2.00;;;;;;;31.42;36.93;100568.16;5113383;28;20036;-64
2023/09/27 11:18:58;;;;;;;3.13;1.80;;;;;;;31.41;36.54;100562.97;5113454;28;20085;-64
2023/09/27 11:21:26;;;;;;;4.60;1.97;;;;;;;31.26;37.52;100564.06;5113245;28;20031;-64
2023/09/27 11:23:58;;;;;;;2.60;1.95;;;;;;;31.11;37.23;100556.91;5112944;28;20402;-64
2023/09/27 11:26:25;;;;;;;3.60;2.30;;;;;;;31.52;36.83;100554.19;5113140;28;20039;-64
2023/09/27 11:29:03;;;;;;;;;;;;;;;32.27;35.78;100546.56;5113631;28;20061;-64
2023/09/27 11:31:31;;;;;;;3.20;2.05;;;;;;;32.22;36.00;100536.50;5112675;28;20062;-64
2023/09/27 11:34:16;;;;;;;3.35;1.92;;;;;;;32.75;35.01;100532.22;5112854;28;20039;-64
2023/09/27 11:36:43;;;;;;;2.58;1.80;;;;;;;32.13;35.79;100528.13;5113025;28;20036;-64
2023/09/27 11:39:10;;;;;;;2.90;2.00;;;;;;;31.39;36.53;100522.00;5112743;28;20498;-65
2023/09/27 11:41:35;;;;;;;;;;;;;;;31.75;36.61;100515.72;5113345;28;20044;-64
2023/09/27 11:44:21;;;;;;;2.70;1.90;;;;;;;31.11;37.37;100509.31;5112568;28;19916;-65
2023/09/27 11:46:50;;;;;;;3.25;1.90;;;;;;;31.22;38.26;100514.28;5094923;28;20043;-64
2023/09/27 11:49:24;;;;;;;3.80;2.10;;;;;;;31.09;37.51;100504.09;5108705;28;20078;-65
2023/09/27 11:51:50;;;;;;;3.22;2.00;;;;;;;31.58;36.84;100502.63;5111242;28;20030;-63
2023/09/27 11:54:17;;;;;;;4.83;2.00;;;;;;;31.60;36.44;100492.91;5112369;28;20405;-63
2023/09/27 11:56:44;;;;;;;3.25;2.28;;;;;;;31.73;37.20;100498.72;5110830;28;20051;-63
2023/09/27 11:59:10;;;;;;;3.20;1.80;;;;;;;31.97;37.24;100490.25;5112486;28;20063;-64
2023/09/27 12:01:36;;;;;;;2.97;2.20;;;;;;;32.13;36.54;100483.25;5111811;28;20036;-64
2023/09/27 12:04:02;;;;;;;2.57;2.13;;;;;;;31.13;38.46;100480.38;5112344;28;20084;-64
2023/09/27 12:06:28;;;;;;;6.23;2.47;;;;;;;30.83;38.29;100473.50;5112689;28;20091;-64
2023/09/27 12:08:55;;;;;;;2.65;1.98;;;;;;;30.89;39.24;100471.47;5112732;28;20495;-64
2023/09/27 12:11:21;;;;;;;;;;;;;;;31.34;37.92;100470.63;5113037;28;20505;-64
2023/09/27 12:13:46;;;;;;;3.33;1.93;;;;;;;31.73;37.50;100465.69;5112307;28;19912;-64
2023/09/27 12:16:12;;;;;;;3.47;2.40;;;;;;;31.89;36.75;100467.00;5112422;28;20047;-64
2023/09/27 12:18:37;;;;;;;3.70;2.50;;;;;;;32.74;35.10;100456.94;5112433;28;20054;-65
2023/09/27 12:21:03;;;;;;;4.40;2.23;;;;;;;33.26;34.39;100459.16;5112405;28;20078;-64
2023/09/27 12:23:29;;;;;;;3.67;2.20;;;;;;;33.16;35.28;100454.72;5112196;28;20032;-64
2023/09/27 12:25:55;;;;;;;3.97;2.10;;;;;;;34.06;33.59;100455.09;5111124;28;20049;-64
2023/09/27 12:28:20;;;;;;;3.50;2.00;;;;;;;34.46;32.85;100446.59;5112307;28;20047;-64
2023/09/27 12:30:46;;;;;;;2.60;1.90;;;;;;;34.61;32.44;100439.72;5112398;28;20028;-64
2023/09/27 12:33:15;;;;;;;3.13;2.00;;;;;;;33.89;32.59;100438.47;5112100;28;20443;-65
2023/09/27 12:35:41;;;;;;;3.25;1.98;;;;;;;34.57;32.34;100431.31;5112111;28;20039;-64
2023/09/27 12:38:07;;;;;;;;;;;;;;;34.74;30.98;100422.13;5112687;28;20495;-65
2023/09/27 12:40:33;;;;;;;2.20;1.73;;;;;;;34.86;31.43;100418.66;5112265;28;19954;-65
2023/09/27 12:43:00;;;;;;;2.45;1.90;;;;;;;34.33;32.30;100428.22;5113700;28;20039;-65
2023/09/27 12:45:25;;;;;;;;;;;;;;;34.59;31.63;100417.94;5116827;28;20048;-65
2023/09/27 12:47:51;;;;;;;;;;;;;;;34.40;31.72;100404.47;5116882;28;19915;-63
2023/09/27 12:50:16;;;;;;;3.53;1.97;;;;;;;33.43;32.93;100404.81;5116218;28;20003;-63
2023/09/27 12:52:42;;;;;;;2.53;1.80;;;;;;;33.92;32.89;100404.72;5116069;28;20031;-63
2023/09/27 12:55:11;;;;;;;2.30;1.87;;;;;;;34.01;31.97;100394.47;5116287;28;20119;-63
2023/09/27 12:57:36;;;;;;;3.13;1.80;;;;;;;33.98;31.55;100395.94;5098135;28;20059;-65
2023/09/27 13:00:02;;;;;;;2.80;1.70;;;;;;;34.25;31.10;100397.50;5116054;28;20120;-64
2023/09/27 13:02:27;;;;;;;4.80;1.93;;;;;;;33.97;32.07;100380.50;5115888;28;20393;-65
2023/09/27 13:04:53;;;;;;;2.60;1.97;;;;;;;33.90;32.19;100385.66;5115765;28;20075;-64
2023/09/27 13:07:18;;;;;;;3.87;1.63;;;;;;;33.40;31.85;100375.09;5115838;28;20065;-64
2023/09/27 13:09:44;;;;;;;1.90;1.70;;;;;;;34.23;31.33;100377.69;5114700;28;20476;-65
2023/09/27 13:12:10;;;;;;;1.67;1.53;;;;;;;33.93;30.89;100375.94;5115825;28;20486;-65
2023/09/27 13:14:35;;;;;;;4.30;1.90;;;;;;;33.34;32.21;100375.53;5115627;28;20043;-65
2023/09/27 13:17:01;;;;;;;3.07;1.93;;;;;;;32.59;33.07;100372.69;5115723;28;20032;-64
2023/09/27 13:19:26;;;;;;;3.03;1.60;;;;;;;32.88;32.15;100366.66;5115654;28;20106;-64
2023/09/27 13:21:51;;;;;;;4.13;2.47;;;;;;;33.17;31.81;100366.09;5115613;28;20035;-64
2023/09/27 13:24:17;;;;;;;4.03;1.77;;;;;;;33.74;31.50;100359.69;5115367;28;20050;-64
2023/09/27 13:26:42;;;;;;;1.93;1.63;;;;;;;34.01;30.27;100359.34;5115639;28;20032;-63
2023/09/27 13:29:08;;;;;;;2.10;1.70;;;;;;;33.66;31.19;100352.22;5115573;28;20040;-65
2023/09/27 13:31:34;;;;;;;2.10;1.60;;;;;;;33.50;31.03;100354.63;5115501;28;20125;-65
2023/09/27 13:34:00;;;;;;;2.60;1.65;;;;;;;33.74;31.46;100354.97;5115193;28;20088;-65
2023/09/27 13:36:27;;;;;;;2.83;1.55;;;;;;;34.18;30.64;100354.94;5115435;28;20077;-65
2023/09/27 13:38:53;;;;;;;2.83;1.75;;;;;;;34.78;29.24;100353.94;5115473;28;20504;-65
2023/09/27 13:41:20;;;;;;;3.65;1.85;;;;;;;33.39;30.72;100353.34;5115179;28;20046;-64
2023/09/27 13:43:45;;;;;;;2.45;1.95;;;;;;;33.27;30.87;100344.84;5115041;28;20050;-65
2023/09/27 13:46:11;;;;;;;3.67;1.77;;;;;;;33.44;31.13;100331.06;5115091;28;20538;-65
2023/09/27 13:48:37;;;;;;;2.03;1.83;;;;;;;33.22;31.04;100337.53;5115176;28;20035;-65
2023/09/27 13:51:02;;;;;;;2.00;1.58;;;;;;;33.03;31.09;100339.78;5115140;28;20031;-65
2023/09/27 13:53:28;;;;;;;3.03;1.70;;;;;;;31.95;32.76;100333.56;5114254;28;20043;-65
2023/09/27 13:55:53;;;;;;;2.50;1.80;;;;;;;31.45;33.15;100330.06;5114991;28;20043;-65
2023/09/27 13:58:18;;;;;;;3.53;1.73;;;;;;;31.17;34.20;100330.09;5115022;28;20453;-65
2023/09/27 14:00:44;;;;;;;2.33;1.70;;;;;;;30.68;35.32;100328.09;5114796;28;20039;-65
2023/09/27 14:03:09;;;;;;;2.93;1.73;;;;;;;29.72;36.16;100334.13;5114615;28;20101;-65
2023/09/27 14:05:35;;;;;;;1.87;1.50;;;;;;;29.38;37.07;100320.63;5114741;28;20040;-64
2023/09/27 14:08:00;;;;;;;1.93;1.43;;;;;;;29.72;36.66;100314.91;5096565;28;20032;-65
2023/09/27 14:10:26;;;;;;;2.93;1.80;;;;;;;29.57;36.80;100312.41;5114759;28;20036;-64
2023/09/27 14:12:51;;;;;;;1.80;1.60;;;;;;;29.39;36.66;100306.59;5114535;28;20035;-64
2023/09/27 14:15:17;;;;;;;2.20;1.80;;;;;;;29.45;36.56;100313.66;5114603;28;20039;-64
2023/09/27 14:17:42;;;;;;;2.83;1.97;;;;;;;28.79;37.48;100314.50;5114202;28;20039;-65
2023/09/27 14:20:10;;;;;;;2.42;1.90;;;;;;;28.81;38.01;100298.59;5112951;28;20027;-64
2023/09/27 14:22:36;;;;;;;2.70;1.88;;;;;;;28.55;38.27;100305.47;5113742;28;20043;-63
2023/09/27 14:25:03;;;;;;;3.60;1.85;;;;;;;28.16;38.67;100297.38;5114090;28;20031;-63
2023/09/27 14:27:29;;;;;;;8.18;2.10;;;;;;;28.16;39.46;100298.19;5114050;28;20434;-63
2023/09/27 14:29:54;;;;;;;4.65;1.95;;;;;;;28.37;39.66;100294.19;5113813;28;20027;-63
2023/09/27 14:32:20;;;;;;;3.72;1.95;;;;;;;27.92;38.92;100289.94;5113804;28;20046;-63
2023/09/27 14:34:45;;;;;;;2.95;1.80;;;;;;;28.03;38.99;100287.91;5113651;28;20028;-63
2023/09/27 14:37:12;;;;;;;2.42;1.80;;;;;;;27.74;39.38;100283.25;5113988;28;20084;-63
2023/09/27 14:39:38;;;;;;;2.95;1.98;;;;;;;27.67;39.87;100279.16;5113928;28;20035;-63
2023/09/27 14:42:04;;;;;;;1.92;1.60;;;;;;;27.39;39.96;100269.81;5110787;28;20114;-65
2023/09/27 14:44:30;;;;;;;3.40;1.80;;;;;;;27.54;40.59;100277.91;5113649;27;20490;-63
2023/09/27 14:46:56;;;;;;;2.38;2.03;;;;;;;27.32;40.41;100278.31;5113542;28;20031;-63
2023/09/27 14:49:22;;;;;;;3.50;2.95;;;;;;;27.28;40.48;100278.06;5112475;28;20517;-63
2023/09/27 14:51:49;;;;;;;4.35;1.88;;;;;;;27.07;40.94;100276.56;5112230;28;20024;-63
2023/09/27 14:54:15;;;;;;;4.07;2.38;;;;;;;26.94;40.67;100271.69;5113208;28;20396;-64
2023/09/27 14:56:42;;;;;;;2.70;1.90;;;;;;;26.95;40.89;100271.41;5095031;28;20105;-64
2023/09/27 14:59:08;;;;;;;3.00;1.90;;;;;;;26.71;40.73;100263.03;5113156;28;20486;-63
2023/09/27 15:01:33;;;;;;;2.90;1.80;;;;;;;26.78;41.00;100263.53;5111902;28;20036;-64
2023/09/27 15:03:59;;;;;;;3.15;2.08;;;;;;;26.64;40.77;100267.97;5113037;28;20074;-64
2023/09/27 15:06:25;;;;;;;2.70;1.70;;;;;;;26.67;41.15;100261.97;5112617;28;20080;-62
2023/09/27 15:08:50;;;;;;;2.63;1.70;;;;;;;26.56;41.36;100265.84;5113609;28;20043;-64
2023/09/27 15:11:23;;;;;;;2.35;1.98;;;;;;;26.56;41.02;100265.84;5113384;28;20047;-63
2023/09/27 15:13:48;;;;;;;3.92;2.08;;;;;;;26.31;41.34;100268.59;5112989;28;20430;-64
2023/09/27 15:16:16;;;;;;;2.28;1.63;;;;;;;26.20;41.72;100268.63;5113273;28;20122;-64
2023/09/27 15:18:43;;;;;;;5.97;1.63;;;;;;;26.12;41.53;100271.91;5113251;28;20081;-64
2023/09/27 15:21:10;;;;;;;1.98;1.77;;;;;;;26.25;41.89;100267.78;5113067;28;20035;-64
2023/09/27 15:23:36;;;;;;;2.25;1.70;;;;;;;26.33;42.06;100272.69;5112686;28;20474;-63
2023/09/27 15:26:05;;;;;;;1.90;1.60;;;;;;;26.32;41.99;100259.31;5113038;28;20039;-64
2023/09/27 15:28:30;;;;;;;2.50;1.70;;;;;;;26.26;42.36;100263.97;5113193;28;20044;-64
2023/09/27 15:30:56;;;;;;;3.10;1.90;;;;;;;26.05;42.81;100262.38;5113105;28;20027;-63
2023/09/27 15:33:22;;;;;;;2.90;1.60;;;;;;;26.08;42.60;100261.81;5112796;28;20057;-64
2023/09/27 15:35:52;;;;;;;4.07;1.63;;;;;;;25.98;42.70;100259.94;5112972;28;20039;-64
2023/09/27 15:38:17;;;;;;;3.40;1.85;;;;;;;25.88;43.13;100255.28;5112905;28;20440;-63
2023/09/27 15:40:44;;;;;;;1.90;1.58;;;;;;;25.81;42.94;100248.47;5111584;28;20043;-63
2023/09/27 15:43:11;;;;;;;2.03;1.75;;;;;;;25.75;42.98;100250.38;5112736;28;20375;-64
2023/09/27 15:45:39;;;;;;;2.08;1.50;;;;;;;25.75;43.28;100249.56;5113010;28;20085;-64